sensor_id;sensor_type;location;lat;lon;timestamp;pressure;altitude;pressure_sealevel;temperature;humidity
71917;BME280;59793;46.506;6.674;2022-07-23T00:00:14;97113.69;;;24.90;54.04
71917;BME280;59793;46.506;6.674;2022-07-23T00:02:41;97113.59;;;24.68;54.52
71917;BME280;59793;46.506;6.674;2022-07-23T00:05:06;97105.75;;;24.48;54.90
71917;BME280;59793;46.506;6.674;2022-07-23T00:07:32;97110.22;;;24.38;54.99
71917;BME280;59793;46.506;6.674;2022-07-23T00:09:57;97103.25;;;24.41;55.30
71917;BME280;59793;46.506;6.674;2022-07-23T00:12:22;97105.75;;;24.48;55.06
71917;BME280;59793;46.506;6.674;2022-07-23T00:14:48;97103.69;;;24.52;54.42
71917;BME280;59793;46.506;6.674;2022-07-23T00:17:13;97102.50;;;24.66;53.90
71917;BME280;59793;46.506;6.674;2022-07-23T00:19:38;97082.78;;;24.69;54.26
71917;BME280;59793;46.506;6.674;2022-07-23T00:22:04;97083.16;;;24.93;53.19
71917;BME280;59793;46.506;6.674;2022-07-23T00:24:29;97080.66;;;25.11;52.71
71917;BME280;59793;46.506;6.674;2022-07-23T00:26:55;97072.28;;;25.31;52.42
71917;BME280;59793;46.506;6.674;2022-07-23T00:29:20;97073.53;;;25.39;52.17
71917;BME280;59793;46.506;6.674;2022-07-23T00:31:45;97061.38;;;25.35;52.05
71917;BME280;59793;46.506;6.674;2022-07-23T00:34:11;97068.53;;;25.28;52.66
71917;BME280;59793;46.506;6.674;2022-07-23T00:36:36;97061.00;;;25.23;52.71
71917;BME280;59793;46.506;6.674;2022-07-23T00:39:02;97067.56;;;25.22;52.76
71917;BME280;59793;46.506;6.674;2022-07-23T00:41:27;97074.91;;;25.22;52.16
71917;BME280;59793;46.506;6.674;2022-07-23T00:43:53;97075.28;;;25.33;51.82
71917;BME280;59793;46.506;6.674;2022-07-23T00:46:19;97086.91;;;25.43;51.70
71917;BME280;59793;46.506;6.674;2022-07-23T00:48:45;97091.09;;;25.44;50.74
71917;BME280;59793;46.506;6.674;2022-07-23T00:51:10;97105.63;;;25.59;49.82
71917;BME280;59793;46.506;6.674;2022-07-23T00:53:36;97123.50;;;25.66;49.44
71917;BME280;59793;46.506;6.674;2022-07-23T00:56:01;97126.13;;;25.79;49.65
71917;BME280;59793;46.506;6.674;2022-07-23T00:58:27;97135.34;;;25.68;50.93
71917;BME280;59793;46.506;6.674;2022-07-23T01:00:53;97153.00;;;25.60;51.93
71917;BME280;59793;46.506;6.674;2022-07-23T01:03:18;97165.41;;;25.58;52.71
71917;BME280;59793;46.506;6.674;2022-07-23T01:05:44;97173.06;;;25.59;56.34
71917;BME280;59793;46.506;6.674;2022-07-23T01:08:09;97171.00;;;25.63;58.06
71917;BME280;59793;46.506;6.674;2022-07-23T01:10:35;97168.94;;;25.67;58.04
71917;BME280;59793;46.506;6.674;2022-07-23T01:13:04;97163.78;;;25.60;59.06
71917;BME280;59793;46.506;6.674;2022-07-23T01:15:30;97170.78;;;25.36;58.16
71917;BME280;59793;46.506;6.674;2022-07-23T01:17:56;97149.19;;;25.36;58.73
71917;BME280;59793;46.506;6.674;2022-07-23T01:20:22;97156.56;;;25.22;59.99
71917;BME280;59793;46.506;6.674;2022-07-23T01:22:48;97153.97;;;25.19;60.41
71917;BME280;59793;46.506;6.674;2022-07-23T01:25:13;97170.63;;;24.92;60.56
71917;BME280;59793;46.506;6.674;2022-07-23T01:27:39;97181.72;;;24.68;61.33
71917;BME280;59793;46.506;6.674;2022-07-23T01:30:05;97192.91;;;24.54;62.06
71917;BME280;59793;46.506;6.674;2022-07-23T01:32:30;97173.72;;;24.52;62.61
71917;BME280;59793;46.506;6.674;2022-07-23T01:34:56;97164.47;;;24.53;63.18
71917;BME280;59793;46.506;6.674;2022-07-23T01:37:22;97149.06;;;24.66;62.74
71917;BME280;59793;46.506;6.674;2022-07-23T01:39:47;97161.88;;;24.49;62.70
71917;BME280;59793;46.506;6.674;2022-07-23T01:42:13;97166.09;;;24.50;62.36
71917;BME280;59793;46.506;6.674;2022-07-23T01:44:38;97170.59;;;24.41;62.07
71917;BME280;59793;46.506;6.674;2022-07-23T01:47:03;97168.28;;;24.14;63.06
71917;BME280;59793;46.506;6.674;2022-07-23T01:49:29;97170.72;;;24.08;63.54
71917;BME280;59793;46.506;6.674;2022-07-23T01:51:54;97180.03;;;23.91;63.28
71917;BME280;59793;46.506;6.674;2022-07-23T01:54:27;97200.91;;;23.87;63.34
71917;BME280;59793;46.506;6.674;2022-07-23T01:56:53;97189.13;;;23.97;63.74
71917;BME280;59793;46.506;6.674;2022-07-23T01:59:18;97178.16;;;24.04;63.09
71917;BME280;59793;46.506;6.674;2022-07-23T02:01:43;97182.81;;;24.16;62.78
71917;BME280;59793;46.506;6.674;2022-07-23T02:04:09;97187.56;;;24.25;63.58
71917;BME280;59793;46.506;6.674;2022-07-23T02:06:34;97172.38;;;24.31;63.65
71917;BME280;59793;46.506;6.674;2022-07-23T02:08:59;97185.31;;;24.36;63.41
71917;BME280;59793;46.506;6.674;2022-07-23T02:11:25;97181.88;;;24.36;63.41
71917;BME280;59793;46.506;6.674;2022-07-23T02:13:50;97190.72;;;24.36;63.05
71917;BME280;59793;46.506;6.674;2022-07-23T02:16:15;97188.84;;;24.20;62.32
71917;BME280;59793;46.506;6.674;2022-07-23T02:18:41;97185.38;;;24.07;62.55
71917;BME280;59793;46.506;6.674;2022-07-23T02:21:06;97192.66;;;23.94;63.31
71917;BME280;59793;46.506;6.674;2022-07-23T02:23:31;97192.66;;;23.94;62.79
71917;BME280;59793;46.506;6.674;2022-07-23T02:25:57;97191.94;;;24.06;62.54
71917;BME280;59793;46.506;6.674;2022-07-23T02:28:22;97205.56;;;23.99;62.58
71917;BME280;59793;46.506;6.674;2022-07-23T02:30:47;97210.69;;;23.80;62.77
71917;BME280;59793;46.506;6.674;2022-07-23T02:33:13;97213.84;;;23.92;61.97
71917;BME280;59793;46.506;6.674;2022-07-23T02:35:38;97210.50;;;23.88;62.48
71917;BME280;59793;46.506;6.674;2022-07-23T02:38:03;97213.66;;;23.99;61.91
71917;BME280;59793;46.506;6.674;2022-07-23T02:40:29;97200.91;;;24.16;61.74
71917;BME280;59793;46.506;6.674;2022-07-23T02:42:54;97199.72;;;24.17;60.15
71917;BME280;59793;46.506;6.674;2022-07-23T02:45:20;97193.72;;;24.25;58.95
71917;BME280;59793;46.506;6.674;2022-07-23T02:47:45;97194.59;;;24.35;58.36
71917;BME280;59793;46.506;6.674;2022-07-23T02:50:10;97196.41;;;24.38;57.97
71917;BME280;59793;46.506;6.674;2022-07-23T02:52:37;97197.94;;;24.39;58.30
71917;BME280;59793;46.506;6.674;2022-07-23T02:55:03;97198.50;;;24.47;60.09
71917;BME280;59793;46.506;6.674;2022-07-23T02:57:29;97205.63;;;24.53;60.77
71917;BME280;59793;46.506;6.674;2022-07-23T02:59:55;97211.78;;;24.54;60.48
71917;BME280;59793;46.506;6.674;2022-07-23T03:02:20;97198.94;;;24.58;59.99
71917;BME280;59793;46.506;6.674;2022-07-23T03:04:45;97181.28;;;24.57;59.33
71917;BME280;59793;46.506;6.674;2022-07-23T03:07:11;97188.81;;;24.62;59.80
71917;BME280;59793;46.506;6.674;2022-07-23T03:09:37;97171.81;;;24.52;60.04
71917;BME280;59793;46.506;6.674;2022-07-23T03:12:03;97184.59;;;24.48;60.77
71917;BME280;59793;46.506;6.674;2022-07-23T03:14:28;97191.38;;;24.40;60.94
71917;BME280;59793;46.506;6.674;2022-07-23T03:16:54;97198.06;;;24.48;60.66
71917;BME280;59793;46.506;6.674;2022-07-23T03:19:19;97201.44;;;24.52;61.70
71917;BME280;59793;46.506;6.674;2022-07-23T03:21:45;97199.50;;;24.53;62.52
71917;BME280;59793;46.506;6.674;2022-07-23T03:24:10;97194.13;;;24.53;62.64
71917;BME280;59793;46.506;6.674;2022-07-23T03:26:36;97198.19;;;24.45;63.56
71917;BME280;59793;46.506;6.674;2022-07-23T03:29:01;97201.00;;;24.54;62.97
71917;BME280;59793;46.506;6.674;2022-07-23T03:31:29;97211.78;;;24.54;63.06
71917;BME280;59793;46.506;6.674;2022-07-23T03:33:55;97205.84;;;24.59;62.90
71917;BME280;59793;46.506;6.674;2022-07-23T03:36:20;97208.53;;;24.59;63.12
71917;BME280;59793;46.506;6.674;2022-07-23T03:38:46;97213.00;;;24.37;63.84
71917;BME280;59793;46.506;6.674;2022-07-23T03:41:11;97208.03;;;24.22;64.40
71917;BME280;59793;46.506;6.674;2022-07-23T03:43:36;97203.41;;;24.23;64.50
71917;BME280;59793;46.506;6.674;2022-07-23T03:46:02;97207.69;;;24.20;64.32
71917;BME280;59793;46.506;6.674;2022-07-23T03:48:27;97194.13;;;24.24;64.45
71917;BME280;59793;46.506;6.674;2022-07-23T03:50:53;97198.34;;;24.38;64.26
71917;BME280;59793;46.506;6.674;2022-07-23T03:53:18;97196.50;;;24.34;63.69
71917;BME280;59793;46.506;6.674;2022-07-23T03:55:43;97190.34;;;24.50;63.51
71917;BME280;59793;46.506;6.674;2022-07-23T03:58:09;97183.72;;;24.39;63.41
71917;BME280;59793;46.506;6.674;2022-07-23T04:00:34;97195.75;;;24.21;63.43
71917;BME280;59793;46.506;6.674;2022-07-23T04:02:59;97195.31;;;24.10;63.37
71917;BME280;59793;46.506;6.674;2022-07-23T04:05:25;97200.28;;;24.24;63.31
71917;BME280;59793;46.506;6.674;2022-07-23T04:07:50;97204.50;;;24.38;63.23
71917;BME280;59793;46.506;6.674;2022-07-23T04:10:15;97200.56;;;24.43;63.70
71917;BME280;59793;46.506;6.674;2022-07-23T04:12:41;97203.66;;;24.41;64.52
71917;BME280;59793;46.506;6.674;2022-07-23T04:15:07;97199.47;;;24.40;64.67
71917;BME280;59793;46.506;6.674;2022-07-23T04:17:33;97205.84;;;24.46;64.26
71917;BME280;59793;46.506;6.674;2022-07-23T04:19:58;97207.78;;;24.46;64.48
71917;BME280;59793;46.506;6.674;2022-07-23T04:22:23;97207.59;;;24.53;64.34
71917;BME280;59793;46.506;6.674;2022-07-23T04:24:49;97210.78;;;24.48;64.15
71917;BME280;59793;46.506;6.674;2022-07-23T04:27:15;97205.84;;;24.46;64.18
71917;BME280;59793;46.506;6.674;2022-07-23T04:29:41;97206.59;;;24.47;64.01
71917;BME280;59793;46.506;6.674;2022-07-23T04:32:06;97211.97;;;24.47;64.17
71917;BME280;59793;46.506;6.674;2022-07-23T04:34:32;97218.56;;;24.46;63.63
71917;BME280;59793;46.506;6.674;2022-07-23T04:36:57;97219.91;;;24.38;63.97
71917;BME280;59793;46.506;6.674;2022-07-23T04:39:23;97227.53;;;24.26;64.18
71917;BME280;59793;46.506;6.674;2022-07-23T04:41:48;97229.94;;;24.08;64.01
71917;BME280;59793;46.506;6.674;2022-07-23T04:44:13;97225.81;;;23.74;63.86
71917;BME280;59793;46.506;6.674;2022-07-23T04:46:39;97227.16;;;23.82;63.30
71917;BME280;59793;46.506;6.674;2022-07-23T04:49:04;97224.38;;;23.86;63.24
71917;BME280;59793;46.506;6.674;2022-07-23T04:51:30;97227.97;;;23.96;62.84
71917;BME280;59793;46.506;6.674;2022-07-23T04:53:55;97226.81;;;24.09;62.60
71917;BME280;59793;46.506;6.674;2022-07-23T04:56:21;97224.09;;;24.26;62.81
71917;BME280;59793;46.506;6.674;2022-07-23T04:58:46;97222.25;;;24.23;63.20
71917;BME280;59793;46.506;6.674;2022-07-23T05:01:11;97223.22;;;24.29;63.50
71917;BME280;59793;46.506;6.674;2022-07-23T05:03:37;97231.81;;;24.24;63.36
71917;BME280;59793;46.506;6.674;2022-07-23T05:06:02;97240.72;;;24.08;63.54
71917;BME280;59793;46.506;6.674;2022-07-23T05:08:28;97244.41;;;24.14;63.08
71917;BME280;59793;46.506;6.674;2022-07-23T05:10:53;97248.53;;;24.02;63.44
71917;BME280;59793;46.506;6.674;2022-07-23T05:13:19;97254.31;;;23.88;63.25
71917;BME280;59793;46.506;6.674;2022-07-23T05:15:44;97255.06;;;23.89;62.91
71917;BME280;59793;46.506;6.674;2022-07-23T05:18:09;97263.09;;;24.05;62.39
71917;BME280;59793;46.506;6.674;2022-07-23T05:20:35;97271.25;;;24.18;61.85
71917;BME280;59793;46.506;6.674;2022-07-23T05:23:00;97284.94;;;24.52;60.94
71917;BME280;59793;46.506;6.674;2022-07-23T05:25:26;97286.59;;;24.75;60.02
71917;BME280;59793;46.506;6.674;2022-07-23T05:27:51;97292.44;;;24.87;59.70
71917;BME280;59793;46.506;6.674;2022-07-23T05:30:17;97296.13;;;24.93;59.58
71917;BME280;59793;46.506;6.674;2022-07-23T05:32:42;97283.72;;;25.08;59.53
71917;BME280;59793;46.506;6.674;2022-07-23T05:35:08;97287.63;;;25.20;60.00
71917;BME280;59793;46.506;6.674;2022-07-23T05:37:33;97287.53;;;25.23;60.35
71917;BME280;59793;46.506;6.674;2022-07-23T05:40:03;97294.31;;;25.28;60.30
71917;BME280;59793;46.506;6.674;2022-07-23T05:42:29;97293.34;;;25.35;61.09
71917;BME280;59793;46.506;6.674;2022-07-23T05:44:54;97299.59;;;25.32;60.98
71917;BME280;59793;46.506;6.674;2022-07-23T05:47:19;97304.66;;;25.30;61.24
71917;BME280;59793;46.506;6.674;2022-07-23T05:49:45;97310.38;;;25.32;61.53
71917;BME280;59793;46.506;6.674;2022-07-23T05:52:10;97308.88;;;25.31;61.55
71917;BME280;59793;46.506;6.674;2022-07-23T05:54:35;97312.84;;;25.26;61.96
71917;BME280;59793;46.506;6.674;2022-07-23T05:57:01;97320.84;;;25.30;62.17
71917;BME280;59793;46.506;6.674;2022-07-23T05:59:27;97325.28;;;25.23;62.67
71917;BME280;59793;46.506;6.674;2022-07-23T06:01:52;97321.69;;;25.26;62.40
71917;BME280;59793;46.506;6.674;2022-07-23T06:04:18;97323.13;;;25.18;62.53
71917;BME280;59793;46.506;6.674;2022-07-23T06:06:43;97312.97;;;25.22;62.63
71917;BME280;59793;46.506;6.674;2022-07-23T06:09:08;97318.81;;;25.34;62.79
71917;BME280;59793;46.506;6.674;2022-07-23T06:11:36;97324.06;;;25.50;62.58
71917;BME280;59793;46.506;6.674;2022-07-23T06:14:01;97321.16;;;25.57;62.33
71917;BME280;59793;46.506;6.674;2022-07-23T06:16:26;97320.84;;;25.55;62.25
71917;BME280;59793;46.506;6.674;2022-07-23T06:18:52;97324.38;;;25.65;61.54
71917;BME280;59793;46.506;6.674;2022-07-23T06:21:17;97317.88;;;25.75;60.03
71917;BME280;59793;46.506;6.674;2022-07-23T06:23:42;97323.38;;;25.97;57.57
71917;BME280;59793;46.506;6.674;2022-07-23T06:26:08;97319.88;;;26.09;56.18
71917;BME280;59793;46.506;6.674;2022-07-23T06:28:33;97328.63;;;26.35;55.40
71917;BME280;59793;46.506;6.674;2022-07-23T06:30:58;97327.00;;;26.51;55.99
71917;BME280;59793;46.506;6.674;2022-07-23T06:33:24;97321.84;;;26.65;57.63
71917;BME280;59793;46.506;6.674;2022-07-23T06:35:49;97321.75;;;26.56;55.98
71917;BME280;59793;46.506;6.674;2022-07-23T06:38:14;97323.13;;;26.83;55.37
71917;BME280;59793;46.506;6.674;2022-07-23T06:40:40;97330.72;;;26.97;54.04
71917;BME280;59793;46.506;6.674;2022-07-23T06:43:05;97331.75;;;26.90;52.18
71917;BME280;59793;46.506;6.674;2022-07-23T06:45:30;97325.94;;;26.35;54.38
71917;BME280;59793;46.506;6.674;2022-07-23T06:47:56;97321.72;;;26.12;55.81
71917;BME280;59793;46.506;6.674;2022-07-23T06:50:21;97328.47;;;25.95;56.50
71917;BME280;59793;46.506;6.674;2022-07-23T06:52:47;97328.69;;;25.88;58.63
71917;BME280;59793;46.506;6.674;2022-07-23T06:55:12;97323.06;;;25.95;57.54
71917;BME280;59793;46.506;6.674;2022-07-23T06:57:37;97317.03;;;26.26;56.78
71917;BME280;59793;46.506;6.674;2022-07-23T07:00:03;97319.47;;;26.33;57.63
71917;BME280;59793;46.506;6.674;2022-07-23T07:02:29;97328.91;;;26.50;58.18
71917;BME280;59793;46.506;6.674;2022-07-23T07:04:55;97336.31;;;26.37;59.45
71917;BME280;59793;46.506;6.674;2022-07-23T07:07:21;97332.66;;;26.31;59.39
71917;BME280;59793;46.506;6.674;2022-07-23T07:09:46;97326.53;;;26.52;58.58
71917;BME280;59793;46.506;6.674;2022-07-23T07:12:12;97336.06;;;26.88;57.70
71917;BME280;59793;46.506;6.674;2022-07-23T07:14:37;97330.53;;;26.91;58.09
71917;BME280;59793;46.506;6.674;2022-07-23T07:17:03;97335.06;;;26.94;58.41
71917;BME280;59793;46.506;6.674;2022-07-23T07:19:28;97334.06;;;26.57;58.75
71917;BME280;59793;46.506;6.674;2022-07-23T07:21:53;97341.38;;;26.69;58.56
71917;BME280;59793;46.506;6.674;2022-07-23T07:24:19;97337.47;;;26.70;58.71
71917;BME280;59793;46.506;6.674;2022-07-23T07:26:44;97340.91;;;26.71;59.38
71917;BME280;59793;46.506;6.674;2022-07-23T07:29:09;97337.84;;;26.82;59.45
71917;BME280;59793;46.506;6.674;2022-07-23T07:31:35;97337.16;;;26.68;58.71
71917;BME280;59793;46.506;6.674;2022-07-23T07:34:00;97347.41;;;26.74;59.45
71917;BME280;59793;46.506;6.674;2022-07-23T07:36:25;97340.66;;;26.78;59.27
71917;BME280;59793;46.506;6.674;2022-07-23T07:38:51;97340.75;;;26.65;59.68
71917;BME280;59793;46.506;6.674;2022-07-23T07:41:16;97341.00;;;26.58;59.68
71917;BME280;59793;46.506;6.674;2022-07-23T07:43:41;97351.69;;;26.84;58.34
71917;BME280;59793;46.506;6.674;2022-07-23T07:46:07;97346.00;;;26.91;58.10
71917;BME280;59793;46.506;6.674;2022-07-23T07:48:37;97336.44;;;26.99;56.38
71917;BME280;59793;46.506;6.674;2022-07-23T07:51:03;97342.88;;;27.24;56.64
71917;BME280;59793;46.506;6.674;2022-07-23T07:53:28;97349.97;;;26.77;57.14
71917;BME280;59793;46.506;6.674;2022-07-23T07:55:53;97345.59;;;27.24;54.65
71917;BME280;59793;46.506;6.674;2022-07-23T07:58:19;97341.50;;;27.50;54.93
71917;BME280;59793;46.506;6.674;2022-07-23T08:00:44;97340.28;;;27.51;54.87
71917;BME280;59793;46.506;6.674;2022-07-23T08:03:09;97349.06;;;27.74;54.68
71917;BME280;59793;46.506;6.674;2022-07-23T08:05:35;97341.34;;;27.13;56.36
71917;BME280;59793;46.506;6.674;2022-07-23T08:08:00;97343.38;;;26.78;56.99
71917;BME280;59793;46.506;6.674;2022-07-23T08:10:27;97335.50;;;26.71;57.90
71917;BME280;59793;46.506;6.674;2022-07-23T08:12:54;97344.50;;;27.12;56.39
71917;BME280;59793;46.506;6.674;2022-07-23T08:15:22;97338.09;;;26.75;58.16
71917;BME280;59793;46.506;6.674;2022-07-23T08:17:48;97343.91;;;26.95;57.69
71917;BME280;59793;46.506;6.674;2022-07-23T08:20:15;97340.00;;;27.58;55.74
71917;BME280;59793;46.506;6.674;2022-07-23T08:22:45;97335.25;;;27.81;53.52
71917;BME280;59793;46.506;6.674;2022-07-23T08:25:11;97335.91;;;27.85;54.02
71917;BME280;59793;46.506;6.674;2022-07-23T08:27:36;97325.16;;;27.72;54.96
71917;BME280;59793;46.506;6.674;2022-07-23T08:30:02;97329.41;;;27.42;55.61
71917;BME280;59793;46.506;6.674;2022-07-23T08:32:27;97327.25;;;27.28;55.07
71917;BME280;59793;46.506;6.674;2022-07-23T08:34:52;97328.88;;;27.56;55.38
71917;BME280;59793;46.506;6.674;2022-07-23T08:37:18;97327.16;;;27.90;54.25
71917;BME280;59793;46.506;6.674;2022-07-23T08:39:43;97332.59;;;28.36;52.90
71917;BME280;59793;46.506;6.674;2022-07-23T08:42:08;97319.03;;;28.36;53.03
71917;BME280;59793;46.506;6.674;2022-07-23T08:44:35;97318.47;;;28.41;51.84
71917;BME280;59793;46.506;6.674;2022-07-23T08:47:00;97324.50;;;28.45;51.49
71917;BME280;59793;46.506;6.674;2022-07-23T08:49:26;97319.03;;;27.90;53.14
71917;BME280;59793;46.506;6.674;2022-07-23T08:51:52;97313.84;;;27.74;53.25
71917;BME280;59793;46.506;6.674;2022-07-23T08:54:18;97319.66;;;27.85;53.38
71917;BME280;59793;46.506;6.674;2022-07-23T08:56:44;97317.31;;;27.65;50.56
71917;BME280;59793;46.506;6.674;2022-07-23T08:59:09;97312.44;;;28.00;51.99
71917;BME280;59793;46.506;6.674;2022-07-23T09:01:39;97318.59;;;28.19;51.79
71917;BME280;59793;46.506;6.674;2022-07-23T09:04:04;97311.34;;;28.62;49.86
71917;BME280;59793;46.506;6.674;2022-07-23T09:06:29;97311.06;;;28.23;49.03
71917;BME280;59793;46.506;6.674;2022-07-23T09:08:54;97320.72;;;28.06;51.10
71917;BME280;59793;46.506;6.674;2022-07-23T09:11:20;97314.38;;;28.00;52.54
71917;BME280;59793;46.506;6.674;2022-07-23T09:13:47;97315.50;;;27.62;52.80
71917;BME280;59793;46.506;6.674;2022-07-23T09:16:18;97319.03;;;27.00;55.90
71917;BME280;59793;46.506;6.674;2022-07-23T09:21:24;97308.38;;;27.37;54.57
71917;BME280;59793;46.506;6.674;2022-07-23T09:23:51;97315.41;;;27.25;55.41
71917;BME280;59793;46.506;6.674;2022-07-23T09:26:46;97312.13;;;27.39;56.05
71917;BME280;59793;46.506;6.674;2022-07-23T09:29:18;97317.75;;;27.54;54.72
71917;BME280;59793;46.506;6.674;2022-07-23T09:31:58;97313.97;;;27.52;54.66
71917;BME280;59793;46.506;6.674;2022-07-23T09:34:26;97315.31;;;27.47;52.17
71917;BME280;59793;46.506;6.674;2022-07-23T09:36:57;97306.88;;;27.36;52.38
71917;BME280;59793;46.506;6.674;2022-07-23T09:39:30;97305.09;;;27.11;51.39
71917;BME280;59793;46.506;6.674;2022-07-23T09:41:56;97306.66;;;27.71;51.31
71917;BME280;59793;46.506;6.674;2022-07-23T09:44:22;97310.94;;;28.18;47.56
71917;BME280;59793;46.506;6.674;2022-07-23T09:46:50;97307.28;;;28.30;45.41
71917;BME280;59793;46.506;6.674;2022-07-23T09:49:16;97312.13;;;28.35;49.48
71917;BME280;59793;46.506;6.674;2022-07-23T09:57:04;97313.31;;;28.71;46.25
71917;BME280;59793;46.506;6.674;2022-07-23T09:59:33;97305.97;;;28.34;45.62
71917;BME280;59793;46.506;6.674;2022-07-23T10:01:59;97313.03;;;28.32;46.88
71917;BME280;59793;46.506;6.674;2022-07-23T10:04:29;97309.78;;;27.69;48.95
71917;BME280;59793;46.506;6.674;2022-07-23T10:06:57;97310.03;;;28.21;49.71
71917;BME280;59793;46.506;6.674;2022-07-23T10:09:28;97317.88;;;28.55;48.03
71917;BME280;59793;46.506;6.674;2022-07-23T10:12:00;97322.50;;;28.18;47.82
71917;BME280;59793;46.506;6.674;2022-07-23T10:14:35;97330.22;;;28.38;48.26
71917;BME280;59793;46.506;6.674;2022-07-23T10:17:02;97334.56;;;28.08;47.79
71917;BME280;59793;46.506;6.674;2022-07-23T10:19:31;97324.13;;;27.79;48.58
71917;BME280;59793;46.506;6.674;2022-07-23T10:22:42;97326.28;;;28.02;47.79
71917;BME280;59793;46.506;6.674;2022-07-23T10:31:18;97327.63;;;28.62;46.35
71917;BME280;59793;46.506;6.674;2022-07-23T10:33:56;97332.31;;;28.43;47.25
71917;BME280;59793;46.506;6.674;2022-07-23T10:36:37;97334.88;;;28.28;49.59
71917;BME280;59793;46.506;6.674;2022-07-23T10:39:14;97329.59;;;28.16;48.90
71917;BME280;59793;46.506;6.674;2022-07-23T10:41:41;97318.91;;;28.40;45.78
71917;BME280;59793;46.506;6.674;2022-07-23T10:46:33;97316.72;;;29.32;45.42
71917;BME280;59793;46.506;6.674;2022-07-23T10:49:24;97329.38;;;29.35;46.18
71917;BME280;59793;46.506;6.674;2022-07-23T10:52:30;97331.47;;;28.98;47.87
71917;BME280;59793;46.506;6.674;2022-07-23T10:57:51;97317.97;;;29.22;48.12
71917;BME280;59793;46.506;6.674;2022-07-23T11:00:21;97325.47;;;29.93;45.79
71917;BME280;59793;46.506;6.674;2022-07-23T11:02:48;97327.19;;;29.82;46.16
71917;BME280;59793;46.506;6.674;2022-07-23T11:05:19;97320.22;;;29.57;46.15
71917;BME280;59793;46.506;6.674;2022-07-23T11:10:41;97329.50;;;29.08;47.71
71917;BME280;59793;46.506;6.674;2022-07-23T11:32:00;97334.72;;;29.63;47.16
71917;BME280;59793;46.506;6.674;2022-07-23T11:34:39;97330.94;;;29.27;46.18
71917;BME280;59793;46.506;6.674;2022-07-23T11:37:07;97335.34;;;30.06;44.56
71917;BME280;59793;46.506;6.674;2022-07-23T11:39:34;97336.31;;;30.17;42.87
71917;BME280;59793;46.506;6.674;2022-07-23T11:42:02;97330.50;;;31.08;41.30
71917;BME280;59793;46.506;6.674;2022-07-23T11:44:38;97330.03;;;31.24;41.85
71917;BME280;59793;46.506;6.674;2022-07-23T11:47:05;97338.22;;;31.80;42.31
71917;BME280;59793;46.506;6.674;2022-07-23T11:49:32;97330.41;;;31.67;41.48
71917;BME280;59793;46.506;6.674;2022-07-23T11:52:11;97325.47;;;31.51;42.12
71917;BME280;59793;46.506;6.674;2022-07-23T11:54:50;97308.00;;;31.07;41.60
71917;BME280;59793;46.506;6.674;2022-07-23T11:57:16;97314.09;;;30.87;42.07
71917;BME280;59793;46.506;6.674;2022-07-23T11:59:41;97316.16;;;30.78;40.83
71917;BME280;59793;46.506;6.674;2022-07-23T12:02:07;97312.88;;;30.88;41.41
71917;BME280;59793;46.506;6.674;2022-07-23T12:04:39;97310.69;;;30.09;42.12
71917;BME280;59793;46.506;6.674;2022-07-23T12:09:47;97310.28;;;29.87;45.39
71917;BME280;59793;46.506;6.674;2022-07-23T12:12:13;97305.91;;;29.65;46.00
71917;BME280;59793;46.506;6.674;2022-07-23T12:14:48;97307.47;;;29.96;44.93
71917;BME280;59793;46.506;6.674;2022-07-23T12:17:13;97316.84;;;30.19;45.65
71917;BME280;59793;46.506;6.674;2022-07-23T12:19:38;97314.41;;;30.21;42.23
71917;BME280;59793;46.506;6.674;2022-07-23T12:22:04;97304.31;;;29.97;45.27
71917;BME280;59793;46.506;6.674;2022-07-23T12:24:30;97315.78;;;30.16;44.04
71917;BME280;59793;46.506;6.674;2022-07-23T12:27:11;97311.81;;;30.02;43.75
71917;BME280;59793;46.506;6.674;2022-07-23T12:29:37;97317.84;;;29.59;44.27
71917;BME280;59793;46.506;6.674;2022-07-23T12:32:02;97307.72;;;29.59;43.92
71917;BME280;59793;46.506;6.674;2022-07-23T12:34:39;97307.72;;;29.83;42.51
71917;BME280;59793;46.506;6.674;2022-07-23T12:37:05;97316.50;;;30.26;41.45
71917;BME280;59793;46.506;6.674;2022-07-23T12:39:31;97308.38;;;30.17;42.05
71917;BME280;59793;46.506;6.674;2022-07-23T12:41:57;97305.44;;;30.06;41.38
71917;BME280;59793;46.506;6.674;2022-07-23T12:44:22;97304.13;;;30.25;41.52
71917;BME280;59793;46.506;6.674;2022-07-23T12:46:51;97300.97;;;30.71;41.38
71917;BME280;59793;46.506;6.674;2022-07-23T12:49:27;97292.91;;;30.77;40.38
71917;BME280;59793;46.506;6.674;2022-07-23T12:51:53;97297.16;;;31.13;39.63
71917;BME280;59793;46.506;6.674;2022-07-23T12:54:19;97291.13;;;31.38;38.86
71917;BME280;59793;46.506;6.674;2022-07-23T12:56:51;97280.41;;;30.40;40.35
71917;BME280;59793;46.506;6.674;2022-07-23T12:59:16;97289.31;;;30.56;40.52
71917;BME280;59793;46.506;6.674;2022-07-23T13:01:43;97283.03;;;30.35;40.75
71917;BME280;59793;46.506;6.674;2022-07-23T13:04:23;97281.28;;;30.46;41.23
71917;BME280;59793;46.506;6.674;2022-07-23T13:06:52;97275.91;;;31.67;38.06
71917;BME280;59793;46.506;6.674;2022-07-23T13:09:20;97271.09;;;32.23;36.68
71917;BME280;59793;46.506;6.674;2022-07-23T13:11:47;97279.28;;;32.23;37.85
71917;BME280;59793;46.506;6.674;2022-07-23T13:14:13;97276.84;;;31.84;37.99
71917;BME280;59793;46.506;6.674;2022-07-23T13:16:38;97281.22;;;31.97;37.27
71917;BME280;59793;46.506;6.674;2022-07-23T13:19:04;97282.63;;;31.16;38.70
71917;BME280;59793;46.506;6.674;2022-07-23T13:21:29;97281.66;;;30.84;39.22
71917;BME280;59793;46.506;6.674;2022-07-23T13:23:56;97280.34;;;30.79;39.96
71917;BME280;59793;46.506;6.674;2022-07-23T13:26:21;97278.31;;;31.09;39.79
71917;BME280;59793;46.506;6.674;2022-07-23T13:28:47;97279.38;;;30.97;39.87
71917;BME280;59793;46.506;6.674;2022-07-23T13:31:12;97271.06;;;31.97;38.51
71917;BME280;59793;46.506;6.674;2022-07-23T13:33:38;97284.84;;;31.88;39.38
71917;BME280;59793;46.506;6.674;2022-07-23T13:36:03;97273.94;;;32.34;39.07
71917;BME280;59793;46.506;6.674;2022-07-23T13:38:29;97280.84;;;32.88;36.78
71917;BME280;59793;46.506;6.674;2022-07-23T13:40:55;97288.59;;;33.32;35.36